sensor_id;sensor_type;location;lat;lon;timestamp;temperature;humidity
11221;DHT22;8517;53.546;10.104;2023-03-23T00:01:29;13.90;99.90
11221;DHT22;8517;53.546;10.104;2023-03-23T00:04:03;13.90;99.90
11221;DHT22;8517;53.546;10.104;2023-03-23T00:06:31;13.80;99.90
11221;DHT22;8517;53.546;10.104;2023-03-23T00:08:59;13.70;99.90
11221;DHT22;8517;53.546;10.104;2023-03-23T00:11:28;13.70;99.90
11221;DHT22;8517;53.546;10.104;2023-03-23T00:13:57;13.60;99.90
11221;DHT22;8517;53.546;10.104;2023-03-23T00:16:29;13.50;99.90
11221;DHT22;8517;53.546;10.104;2023-03-23T00:19:04;13.40;99.90
11221;DHT22;8517;53.546;10.104;2023-03-23T00:21:33;13.30;99.90
11221;DHT22;8517;53.546;10.104;2023-03-23T00:24:02;13.20;99.90
11221;DHT22;8517;53.546;10.104;2023-03-23T00:26:30;13.20;99.90
11221;DHT22;8517;53.546;10.104;2023-03-23T00:28:59;13.10;99.90
11221;DHT22;8517;53.546;10.104;2023-03-23T00:31:28;13.00;99.90
11221;DHT22;8517;53.546;10.104;2023-03-23T00:33:58;12.90;99.90
11221;DHT22;8517;53.546;10.104;2023-03-23T00:36:27;12.90;99.90
11221;DHT22;8517;53.546;10.104;2023-03-23T00:38:55;12.90;99.90
11221;DHT22;8517;53.546;10.104;2023-03-23T00:41:25;12.80;99.90
11221;DHT22;8517;53.546;10.104;2023-03-23T00:43:52;12.70;99.90
11221;DHT22;8517;53.546;10.104;2023-03-23T00:46:19;12.70;99.90
11221;DHT22;8517;53.546;10.104;2023-03-23T00:48:47;12.70;99.90
11221;DHT22;8517;53.546;10.104;2023-03-23T00:51:16;12.60;99.90
11221;DHT22;8517;53.546;10.104;2023-03-23T00:53:43;12.60;99.90
11221;DHT22;8517;53.546;10.104;2023-03-23T00:58:39;12.60;99.90
11221;DHT22;8517;53.546;10.104;2023-03-23T01:01:06;12.60;99.90
11221;DHT22;8517;53.546;10.104;2023-03-23T01:03:33;12.60;99.90
11221;DHT22;8517;53.546;10.104;2023-03-23T01:06:06;12.60;99.90
11221;DHT22;8517;53.546;10.104;2023-03-23T01:08:34;12.50;99.90
11221;DHT22;8517;53.546;10.104;2023-03-23T01:11:03;12.60;99.90
11221;DHT22;8517;53.546;10.104;2023-03-23T01:13:30;12.50;99.90
11221;DHT22;8517;53.546;10.104;2023-03-23T01:15:57;12.50;99.90
11221;DHT22;8517;53.546;10.104;2023-03-23T01:18:24;12.50;99.90
11221;DHT22;8517;53.546;10.104;2023-03-23T01:20:51;12.50;99.90
11221;DHT22;8517;53.546;10.104;2023-03-23T01:23:19;12.50;99.90
11221;DHT22;8517;53.546;10.104;2023-03-23T01:25:45;12.50;99.90
11221;DHT22;8517;53.546;10.104;2023-03-23T01:28:12;12.50;99.90
11221;DHT22;8517;53.546;10.104;2023-03-23T01:30:39;12.50;99.90
11221;DHT22;8517;53.546;10.104;2023-03-23T01:33:06;12.50;99.90
11221;DHT22;8517;53.546;10.104;2023-03-23T01:35:36;12.50;99.90
11221;DHT22;8517;53.546;10.104;2023-03-23T01:38:03;12.50;99.90
11221;DHT22;8517;53.546;10.104;2023-03-23T01:40:31;12.50;99.90
11221;DHT22;8517;53.546;10.104;2023-03-23T01:42:58;12.50;99.90
11221;DHT22;8517;53.546;10.104;2023-03-23T01:45:34;12.50;99.90
11221;DHT22;8517;53.546;10.104;2023-03-23T01:48:10;12.50;99.90
11221;DHT22;8517;53.546;10.104;2023-03-23T01:50:43;12.40;99.90
11221;DHT22;8517;53.546;10.104;2023-03-23T01:53:12;12.40;99.90
11221;DHT22;8517;53.546;10.104;2023-03-23T01:55:43;12.40;99.90
11221;DHT22;8517;53.546;10.104;2023-03-23T01:58:14;12.40;99.90
11221;DHT22;8517;53.546;10.104;2023-03-23T02:00:43;12.40;99.90
11221;DHT22;8517;53.546;10.104;2023-03-23T02:03:12;12.40;99.90
11221;DHT22;8517;53.546;10.104;2023-03-23T02:05:42;12.30;99.90
11221;DHT22;8517;53.546;10.104;2023-03-23T02:08:10;12.40;99.90
11221;DHT22;8517;53.546;10.104;2023-03-23T02:10:40;12.30;99.90
11221;DHT22;8517;53.546;10.104;2023-03-23T02:13:09;12.30;99.90
11221;DHT22;8517;53.546;10.104;2023-03-23T02:15:45;12.30;99.90
11221;DHT22;8517;53.546;10.104;2023-03-23T02:18:30;12.30;99.90
11221;DHT22;8517;53.546;10.104;2023-03-23T02:21:19;12.30;99.90
11221;DHT22;8517;53.546;10.104;2023-03-23T02:26:56;12.30;99.90
11221;DHT22;8517;53.546;10.104;2023-03-23T02:32:39;12.30;99.90
11221;DHT22;8517;53.546;10.104;2023-03-23T02:35:12;12.30;99.90
11221;DHT22;8517;53.546;10.104;2023-03-23T02:37:46;12.30;99.90
11221;DHT22;8517;53.546;10.104;2023-03-23T02:40:17;12.40;99.90
11221;DHT22;8517;53.546;10.104;2023-03-23T02:42:47;12.40;99.90
11221;DHT22;8517;53.546;10.104;2023-03-23T02:45:15;12.40;99.90
11221;DHT22;8517;53.546;10.104;2023-03-23T02:47:43;12.40;99.90
11221;DHT22;8517;53.546;10.104;2023-03-23T02:50:14;12.40;99.90
11221;DHT22;8517;53.546;10.104;2023-03-23T02:52:43;12.40;99.90
11221;DHT22;8517;53.546;10.104;2023-03-23T02:55:11;12.40;99.90
11221;DHT22;8517;53.546;10.104;2023-03-23T02:57:40;12.40;99.90
11221;DHT22;8517;53.546;10.104;2023-03-23T03:00:10;12.40;99.90
11221;DHT22;8517;53.546;10.104;2023-03-23T03:02:50;12.40;99.90
11221;DHT22;8517;53.546;10.104;2023-03-23T03:05:30;12.40;99.90
11221;DHT22;8517;53.546;10.104;2023-03-23T03:08:23;12.40;99.90
11221;DHT22;8517;53.546;10.104;2023-03-23T03:10:54;12.50;99.90
11221;DHT22;8517;53.546;10.104;2023-03-23T03:13:34;12.50;99.90
11221;DHT22;8517;53.546;10.104;2023-03-23T03:16:08;12.50;99.90
11221;DHT22;8517;53.546;10.104;2023-03-23T03:18:44;12.50;99.90
11221;DHT22;8517;53.546;10.104;2023-03-23T03:21:16;12.50;99.90
11221;DHT22;8517;53.546;10.104;2023-03-23T03:23:47;12.50;99.90
11221;DHT22;8517;53.546;10.104;2023-03-23T03:26:15;12.50;99.90
11221;DHT22;8517;53.546;10.104;2023-03-23T03:28:47;12.60;99.90
11221;DHT22;8517;53.546;10.104;2023-03-23T03:31:16;12.60;99.90
11221;DHT22;8517;53.546;10.104;2023-03-23T03:33:44;12.60;99.90
11221;DHT22;8517;53.546;10.104;2023-03-23T03:36:18;12.50;99.90
11221;DHT22;8517;53.546;10.104;2023-03-23T03:38:47;12.60;99.90
11221;DHT22;8517;53.546;10.104;2023-03-23T03:41:15;12.60;99.90
11221;DHT22;8517;53.546;10.104;2023-03-23T03:43:42;12.60;99.90
11221;DHT22;8517;53.546;10.104;2023-03-23T03:46:09;12.60;99.90
11221;DHT22;8517;53.546;10.104;2023-03-23T03:48:36;12.60;99.90
11221;DHT22;8517;53.546;10.104;2023-03-23T03:51:03;12.60;99.90
11221;DHT22;8517;53.546;10.104;2023-03-23T03:53:32;12.60;99.90
11221;DHT22;8517;53.546;10.104;2023-03-23T03:55:58;12.60;99.90
11221;DHT22;8517;53.546;10.104;2023-03-23T03:58:27;12.70;99.90
11221;DHT22;8517;53.546;10.104;2023-03-23T04:00:57;12.70;99.90
11221;DHT22;8517;53.546;10.104;2023-03-23T04:03:24;12.70;99.90
11221;DHT22;8517;53.546;10.104;2023-03-23T04:05:52;12.70;99.90
11221;DHT22;8517;53.546;10.104;2023-03-23T04:08:20;12.70;99.90
11221;DHT22;8517;53.546;10.104;2023-03-23T04:10:49;12.70;99.90
11221;DHT22;8517;53.546;10.104;2023-03-23T04:13:17;12.80;99.90
11221;DHT22;8517;53.546;10.104;2023-03-23T04:15:44;12.80;99.90
11221;DHT22;8517;53.546;10.104;2023-03-23T04:18:12;12.80;99.90
11221;DHT22;8517;53.546;10.104;2023-03-23T04:20:41;12.90;99.90
11221;DHT22;8517;53.546;10.104;2023-03-23T04:23:08;12.90;99.90
11221;DHT22;8517;53.546;10.104;2023-03-23T04:25:35;12.90;99.90
11221;DHT22;8517;53.546;10.104;2023-03-23T04:28:03;12.90;99.90
11221;DHT22;8517;53.546;10.104;2023-03-23T04:30:30;12.90;99.90
11221;DHT22;8517;53.546;10.104;2023-03-23T04:32:57;12.90;99.90
11221;DHT22;8517;53.546;10.104;2023-03-23T04:35:24;12.90;99.90
11221;DHT22;8517;53.546;10.104;2023-03-23T04:37:53;13.00;99.90
11221;DHT22;8517;53.546;10.104;2023-03-23T04:40:21;13.00;99.90
11221;DHT22;8517;53.546;10.104;2023-03-23T04:42:48;13.00;99.90
11221;DHT22;8517;53.546;10.104;2023-03-23T04:45:20;13.00;99.90
11221;DHT22;8517;53.546;10.104;2023-03-23T04:47:48;13.00;99.90
11221;DHT22;8517;53.546;10.104;2023-03-23T04:50:20;12.90;99.90
11221;DHT22;8517;53.546;10.104;2023-03-23T04:52:49;13.00;99.90
11221;DHT22;8517;53.546;10.104;2023-03-23T04:55:17;13.00;99.90
11221;DHT22;8517;53.546;10.104;2023-03-23T04:57:44;13.00;99.90
11221;DHT22;8517;53.546;10.104;2023-03-23T05:00:12;13.00;99.90
11221;DHT22;8517;53.546;10.104;2023-03-23T05:02:44;13.00;99.90
11221;DHT22;8517;53.546;10.104;2023-03-23T05:05:13;13.10;99.90
11221;DHT22;8517;53.546;10.104;2023-03-23T05:07:41;13.10;99.90
11221;DHT22;8517;53.546;10.104;2023-03-23T05:10:10;13.10;99.90
11221;DHT22;8517;53.546;10.104;2023-03-23T05:12:37;13.20;99.90
11221;DHT22;8517;53.546;10.104;2023-03-23T05:15:05;13.20;99.90
11221;DHT22;8517;53.546;10.104;2023-03-23T05:17:33;13.20;99.90
11221;DHT22;8517;53.546;10.104;2023-03-23T05:20:02;13.30;99.90
11221;DHT22;8517;53.546;10.104;2023-03-23T05:22:30;13.30;99.90
11221;DHT22;8517;53.546;10.104;2023-03-23T05:24:58;13.30;99.90
11221;DHT22;8517;53.546;10.104;2023-03-23T05:27:25;13.40;99.90
11221;DHT22;8517;53.546;10.104;2023-03-23T05:29:53;13.40;99.90
11221;DHT22;8517;53.546;10.104;2023-03-23T05:32:20;13.40;99.90
11221;DHT22;8517;53.546;10.104;2023-03-23T05:34:54;13.40;99.90
11221;DHT22;8517;53.546;10.104;2023-03-23T05:37:23;13.40;99.90
11221;DHT22;8517;53.546;10.104;2023-03-23T05:39:50;13.40;99.90
11221;DHT22;8517;53.546;10.104;2023-03-23T05:42:19;13.40;99.90
11221;DHT22;8517;53.546;10.104;2023-03-23T05:44:45;13.40;99.90
11221;DHT22;8517;53.546;10.104;2023-03-23T05:47:12;13.30;99.90
11221;DHT22;8517;53.546;10.104;2023-03-23T05:49:39;13.40;99.90
11221;DHT22;8517;53.546;10.104;2023-03-23T05:52:06;13.40;99.90
11221;DHT22;8517;53.546;10.104;2023-03-23T05:54:35;13.30;99.90
11221;DHT22;8517;53.546;10.104;2023-03-23T05:57:02;13.30;99.90
11221;DHT22;8517;53.546;10.104;2023-03-23T05:59:29;13.30;99.90
11221;DHT22;8517;53.546;10.104;2023-03-23T06:02:01;13.30;99.90
11221;DHT22;8517;53.546;10.104;2023-03-23T06:04:28;13.30;99.90
11221;DHT22;8517;53.546;10.104;2023-03-23T06:06:55;13.40;99.90
11221;DHT22;8517;53.546;10.104;2023-03-23T06:09:24;13.30;99.90
11221;DHT22;8517;53.546;10.104;2023-03-23T06:11:53;13.40;99.90
11221;DHT22;8517;53.546;10.104;2023-03-23T06:14:20;13.30;99.90
11221;DHT22;8517;53.546;10.104;2023-03-23T06:16:48;13.30;99.90
11221;DHT22;8517;53.546;10.104;2023-03-23T06:19:16;13.30;99.90
11221;DHT22;8517;53.546;10.104;2023-03-23T06:21:42;13.30;99.90
11221;DHT22;8517;53.546;10.104;2023-03-23T06:24:15;13.30;99.90
11221;DHT22;8517;53.546;10.104;2023-03-23T06:26:43;13.40;99.90
11221;DHT22;8517;53.546;10.104;2023-03-23T06:29:12;13.40;99.90
11221;DHT22;8517;53.546;10.104;2023-03-23T06:31:40;13.40;99.90
11221;DHT22;8517;53.546;10.104;2023-03-23T06:34:08;13.40;99.90
11221;DHT22;8517;53.546;10.104;2023-03-23T06:36:35;13.40;99.90
11221;DHT22;8517;53.546;10.104;2023-03-23T06:39:02;13.40;99.90
11221;DHT22;8517;53.546;10.104;2023-03-23T06:41:30;13.40;99.90
11221;DHT22;8517;53.546;10.104;2023-03-23T06:43:57;13.40;99.90
11221;DHT22;8517;53.546;10.104;2023-03-23T06:46:25;13.40;99.90
11221;DHT22;8517;53.546;10.104;2023-03-23T06:48:52;13.40;99.90
11221;DHT22;8517;53.546;10.104;2023-03-23T06:51:19;13.40;99.90
11221;DHT22;8517;53.546;10.104;2023-03-23T06:53:47;13.40;99.90
11221;DHT22;8517;53.546;10.104;2023-03-23T06:56:14;13.40;99.90
11221;DHT22;8517;53.546;10.104;2023-03-23T06:58:41;13.40;99.90
11221;DHT22;8517;53.546;10.104;2023-03-23T07:01:09;13.50;99.90
11221;DHT22;8517;53.546;10.104;2023-03-23T07:03:37;13.50;99.90
11221;DHT22;8517;53.546;10.104;2023-03-23T07:06:05;13.50;99.90
11221;DHT22;8517;53.546;10.104;2023-03-23T07:08:32;13.50;99.90
11221;DHT22;8517;53.546;10.104;2023-03-23T07:10:59;13.50;99.90
11221;DHT22;8517;53.546;10.104;2023-03-23T07:13:26;13.60;99.90
11221;DHT22;8517;53.546;10.104;2023-03-23T07:15:53;13.70;99.90
11221;DHT22;8517;53.546;10.104;2023-03-23T07:18:20;13.70;99.90
11221;DHT22;8517;53.546;10.104;2023-03-23T07:20:48;13.90;99.90
11221;DHT22;8517;53.546;10.104;2023-03-23T07:23:17;13.90;99.90
11221;DHT22;8517;53.546;10.104;2023-03-23T07:25:44;14.00;99.90
11221;DHT22;8517;53.546;10.104;2023-03-23T07:28:12;14.10;99.90
11221;DHT22;8517;53.546;10.104;2023-03-23T07:30:39;14.20;99.90
11221;DHT22;8517;53.546;10.104;2023-03-23T07:33:07;14.30;99.90
11221;DHT22;8517;53.546;10.104;2023-03-23T07:35:34;14.30;99.90
11221;DHT22;8517;53.546;10.104;2023-03-23T07:38:04;14.30;99.90
11221;DHT22;8517;53.546;10.104;2023-03-23T07:40:32;14.40;99.90
11221;DHT22;8517;53.546;10.104;2023-03-23T07:43:00;14.50;99.90
11221;DHT22;8517;53.546;10.104;2023-03-23T07:45:28;14.60;99.90
11221;DHT22;8517;53.546;10.104;2023-03-23T07:47:55;14.70;99.90
11221;DHT22;8517;53.546;10.104;2023-03-23T07:50:22;14.70;99.90
11221;DHT22;8517;53.546;10.104;2023-03-23T07:52:50;14.80;99.90
11221;DHT22;8517;53.546;10.104;2023-03-23T07:55:19;14.80;99.90
11221;DHT22;8517;53.546;10.104;2023-03-23T07:57:47;14.80;99.90
11221;DHT22;8517;53.546;10.104;2023-03-23T08:00:15;14.90;99.90
11221;DHT22;8517;53.546;10.104;2023-03-23T08:02:44;14.90;99.90
11221;DHT22;8517;53.546;10.104;2023-03-23T08:05:12;14.90;99.90
11221;DHT22;8517;53.546;10.104;2023-03-23T08:07:40;14.90;99.90
11221;DHT22;8517;53.546;10.104;2023-03-23T08:10:09;15.00;99.90
11221;DHT22;8517;53.546;10.104;2023-03-23T08:12:39;15.00;99.90
11221;DHT22;8517;53.546;10.104;2023-03-23T08:15:08;15.00;99.90
11221;DHT22;8517;53.546;10.104;2023-03-23T08:17:38;15.00;99.90
11221;DHT22;8517;53.546;10.104;2023-03-23T08:20:07;15.00;99.90
11221;DHT22;8517;53.546;10.104;2023-03-23T08:22:36;15.00;99.90
11221;DHT22;8517;53.546;10.104;2023-03-23T08:25:04;15.00;99.90
11221;DHT22;8517;53.546;10.104;2023-03-23T08:27:31;15.00;99.90
11221;DHT22;8517;53.546;10.104;2023-03-23T08:29:59;14.90;99.90
11221;DHT22;8517;53.546;10.104;2023-03-23T08:32:27;14.90;99.90
11221;DHT22;8517;53.546;10.104;2023-03-23T08:34:53;15.00;99.90
11221;DHT22;8517;53.546;10.104;2023-03-23T08:37:21;14.90;99.90
11221;DHT22;8517;53.546;10.104;2023-03-23T08:39:51;14.90;99.90
11221;DHT22;8517;53.546;10.104;2023-03-23T08:42:18;14.90;99.90
11221;DHT22;8517;53.546;10.104;2023-03-23T08:44:45;14.80;99.90
11221;DHT22;8517;53.546;10.104;2023-03-23T08:47:13;14.80;99.90
11221;DHT22;8517;53.546;10.104;2023-03-23T08:49:41;14.70;99.90
11221;DHT22;8517;53.546;10.104;2023-03-23T08:52:09;14.50;99.90
11221;DHT22;8517;53.546;10.104;2023-03-23T08:54:35;14.40;99.90
11221;DHT22;8517;53.546;10.104;2023-03-23T08:57:03;14.40;99.90
11221;DHT22;8517;53.546;10.104;2023-03-23T08:59:30;14.30;99.90
11221;DHT22;8517;53.546;10.104;2023-03-23T09:01:57;14.30;99.90
11221;DHT22;8517;53.546;10.104;2023-03-23T09:04:25;14.30;99.90
11221;DHT22;8517;53.546;10.104;2023-03-23T09:06:55;14.30;99.90
11221;DHT22;8517;53.546;10.104;2023-03-23T09:09:22;14.30;99.90
11221;DHT22;8517;53.546;10.104;2023-03-23T09:11:49;14.40;99.90
11221;DHT22;8517;53.546;10.104;2023-03-23T09:14:16;14.50;99.90
11221;DHT22;8517;53.546;10.104;2023-03-23T09:16:42;14.60;99.90
11221;DHT22;8517;53.546;10.104;2023-03-23T09:19:11;14.70;99.90
11221;DHT22;8517;53.546;10.104;2023-03-23T09:21:42;14.80;99.90
11221;DHT22;8517;53.546;10.104;2023-03-23T09:24:10;14.90;99.90
11221;DHT22;8517;53.546;10.104;2023-03-23T09:26:37;14.90;99.90
11221;DHT22;8517;53.546;10.104;2023-03-23T09:29:04;15.00;99.90
11221;DHT22;8517;53.546;10.104;2023-03-23T09:31:31;15.00;99.90
11221;DHT22;8517;53.546;10.104;2023-03-23T09:33:58;15.00;99.90
11221;DHT22;8517;53.546;10.104;2023-03-23T09:36:26;15.00;99.90
11221;DHT22;8517;53.546;10.104;2023-03-23T09:38:58;15.00;99.90
11221;DHT22;8517;53.546;10.104;2023-03-23T09:41:46;15.00;99.90
11221;DHT22;8517;53.546;10.104;2023-03-23T09:44:22;15.00;99.90
11221;DHT22;8517;53.546;10.104;2023-03-23T09:46:59;15.00;99.90
11221;DHT22;8517;53.546;10.104;2023-03-23T09:49:32;15.00;99.90
11221;DHT22;8517;53.546;10.104;2023-03-23T09:52:03;15.00;99.90
11221;DHT22;8517;53.546;10.104;2023-03-23T09:54:35;15.00;99.90
11221;DHT22;8517;53.546;10.104;2023-03-23T09:57:04;15.00;99.90
11221;DHT22;8517;53.546;10.104;2023-03-23T09:59:36;15.10;99.90
11221;DHT22;8517;53.546;10.104;2023-03-23T10:02:12;15.20;99.90
11221;DHT22;8517;53.546;10.104;2023-03-23T10:04:44;15.30;99.90
11221;DHT22;8517;53.546;10.104;2023-03-23T10:07:13;15.40;99.90
11221;DHT22;8517;53.546;10.104;2023-03-23T10:09:46;15.50;99.90
11221;DHT22;8517;53.546;10.104;2023-03-23T10:12:25;15.60;99.90
11221;DHT22;8517;53.546;10.104;2023-03-23T10:15:11;15.70;99.90
11221;DHT22;8517;53.546;10.104;2023-03-23T10:18:15;15.80;99.90
11221;DHT22;8517;53.546;10.104;2023-03-23T10:20:43;15.90;99.90
11221;DHT22;8517;53.546;10.104;2023-03-23T10:23:21;15.90;99.90
11221;DHT22;8517;53.546;10.104;2023-03-23T10:26:04;16.00;99.90
11221;DHT22;8517;53.546;10.104;2023-03-23T10:28:42;16.10;99.90
11221;DHT22;8517;53.546;10.104;2023-03-23T10:31:22;16.30;99.90
11221;DHT22;8517;53.546;10.104;2023-03-23T10:34:10;16.50;99.90
11221;DHT22;8517;53.546;10.104;2023-03-23T10:36:51;16.70;99.90
11221;DHT22;8517;53.546;10.104;2023-03-23T10:39:21;16.90;99.90
11221;DHT22;8517;53.546;10.104;2023-03-23T10:45:17;16.90;99.90
11221;DHT22;8517;53.546;10.104;2023-03-23T10:51:22;16.70;99.90
11221;DHT22;8517;53.546;10.104;2023-03-23T11:07:34;16.20;99.90
11221;DHT22;8517;53.546;10.104;2023-03-23T11:14:25;16.20;99.90
11221;DHT22;8517;53.546;10.104;2023-03-23T11:20:08;16.20;99.90
11221;DHT22;8517;53.546;10.104;2023-03-23T11:37:53;16.40;99.90
11221;DHT22;8517;53.546;10.104;2023-03-23T11:44:19;16.40;99.90
11221;DHT22;8517;53.546;10.104;2023-03-23T11:47:13;16.40;99.90
11221;DHT22;8517;53.546;10.104;2023-03-23T11:49:50;16.50;99.90
11221;DHT22;8517;53.546;10.104;2023-03-23T11:52:29;16.40;99.90
11221;DHT22;8517;53.546;10.104;2023-03-23T11:55:10;16.40;99.90
11221;DHT22;8517;53.546;10.104;2023-03-23T11:57:46;16.40;99.90
11221;DHT22;8517;53.546;10.104;2023-03-23T12:00:17;16.40;99.90
11221;DHT22;8517;53.546;10.104;2023-03-23T12:05:45;16.40;99.90
11221;DHT22;8517;53.546;10.104;2023-03-23T12:08:35;16.40;99.90
11221;DHT22;8517;53.546;10.104;2023-03-23T12:11:18;16.40;99.90
11221;DHT22;8517;53.546;10.104;2023-03-23T12:14:00;16.40;99.90
11221;DHT22;8517;53.546;10.104;2023-03-23T12:16:35;16.40;99.90
11221;DHT22;8517;53.546;10.104;2023-03-23T12:19:16;16.30;99.90
11221;DHT22;8517;53.546;10.104;2023-03-23T12:22:37;16.30;99.90
11221;DHT22;8517;53.546;10.104;2023-03-23T12:28:21;16.30;99.90
11221;DHT22;8517;53.546;10.104;2023-03-23T12:31:02;16.30;99.90
11221;DHT22;8517;53.546;10.104;2023-03-23T12:34:18;16.30;99.90
11221;DHT22;8517;53.546;10.104;2023-03-23T12:36:57;16.20;99.90
11221;DHT22;8517;53.546;10.104;2023-03-23T12:39:50;16.20;99.90
11221;DHT22;8517;53.546;10.104;2023-03-23T12:45:50;16.00;99.90
11221;DHT22;8517;53.546;10.104;2023-03-23T12:48:40;15.90;99.90
11221;DHT22;8517;53.546;10.104;2023-03-23T12:54:55;15.60;99.90
11221;DHT22;8517;53.546;10.104;2023-03-23T12:57:38;15.50;99.90
11221;DHT22;8517;53.546;10.104;2023-03-23T13:03:27;15.30;99.90
11221;DHT22;8517;53.546;10.104;2023-03-23T13:06:04;15.30;99.90
11221;DHT22;8517;53.546;10.104;2023-03-23T13:10:19;15.20;99.90
11221;DHT22;8517;53.546;10.104;2023-03-23T13:12:15;15.30;99.90
11221;DHT22;8517;53.546;10.104;2023-03-23T13:14:50;15.60;99.90
11221;DHT22;8517;53.546;10.104;2023-03-23T13:17:44;15.90;99.90
11221;DHT22;8517;53.546;10.104;2023-03-23T13:20:51;16.10;99.90
11221;DHT22;8517;53.546;10.104;2023-03-23T13:23:22;16.30;99.90
11221;DHT22;8517;53.546;10.104;2023-03-23T13:25:59;16.40;99.90
11221;DHT22;8517;53.546;10.104;2023-03-23T13:35:12;16.60;99.90
11221;DHT22;8517;53.546;10.104;2023-03-23T13:37:45;16.70;99.90
11221;DHT22;8517;53.546;10.104;2023-03-23T13:40:25;16.70;99.90
11221;DHT22;8517;53.546;10.104;2023-03-23T13:42:57;16.60;99.90
11221;DHT22;8517;53.546;10.104;2023-03-23T13:45:36;16.60;99.90
11221;DHT22;8517;53.546;10.104;2023-03-23T13:48:16;16.60;99.90
11221;DHT22;8517;53.546;10.104;2023-03-23T13:50:48;16.50;99.90
11221;DHT22;8517;53.546;10.104;2023-03-23T13:53:26;16.50;99.90
11221;DHT22;8517;53.546;10.104;2023-03-23T13:56:17;16.50;99.90
11221;DHT22;8517;53.546;10.104;2023-03-23T13:58:50;16.60;99.90
11221;DHT22;8517;53.546;10.104;2023-03-23T14:01:32;16.60;99.90
11221;DHT22;8517;53.546;10.104;2023-03-23T14:04:06;16.50;99.90
11221;DHT22;8517;53.546;10.104;2023-03-23T14:09:51;16.50;99.90
11221;DHT22;8517;53.546;10.104;2023-03-23T14:12:19;16.50;99.90
11221;DHT22;8517;53.546;10.104;2023-03-23T14:14:56;16.40;99.90
11221;DHT22;8517;53.546;10.104;2023-03-23T14:17:39;16.40;99.90
11221;DHT22;8517;53.546;10.104;2023-03-23T14:20:59;16.30;99.90
11221;DHT22;8517;53.546;10.104;2023-03-23T14:23:44;16.30;99.90
11221;DHT22;8517;53.546;10.104;2023-03-23T14:29:11;15.90;99.90
11221;DHT22;8517;53.546;10.104;2023-03-23T14:35:13;15.60;99.90
11221;DHT22;8517;53.546;10.104;2023-03-23T14:38:18;15.40;99.90
11221;DHT22;8517;53.546;10.104;2023-03-23T14:47:36;15.00;99.90
11221;DHT22;8517;53.546;10.104;2023-03-23T14:50:36;15.00;99.90
11221;DHT22;8517;53.546;10.104;2023-03-23T14:53:23;14.90;99.90
11221;DHT22;8517;53.546;10.104;2023-03-23T14:55:52;14.90;99.90
11221;DHT22;8517;53.546;10.104;2023-03-23T14:58:34;14.80;99.90
11221;DHT22;8517;53.546;10.104;2023-03-23T15:01:04;14.80;99.90
11221;DHT22;8517;53.546;10.104;2023-03-23T15:03:40;14.70;99.90
11221;DHT22;8517;53.546;10.104;2023-03-23T15:06:12;14.70;99.90
11221;DHT22;8517;53.546;10.104;2023-03-23T15:08:40;14.70;99.90
11221;DHT22;8517;53.546;10.104;2023-03-23T15:11:21;14.60;99.90
11221;DHT22;8517;53.546;10.104;2023-03-23T15:13:56;14.70;99.90
11221;DHT22;8517;53.546;10.104;2023-03-23T15:16:27;14.70;99.90
11221;DHT22;8517;53.546;10.104;2023-03-23T15:18:58;14.70;99.90
11221;DHT22;8517;53.546;10.104;2023-03-23T15:21:30;14.70;99.90
11221;DHT22;8517;53.546;10.104;2023-03-23T15:23:57;14.60;99.90
11221;DHT22;8517;53.546;10.104;2023-03-23T15:26:31;14.70;99.90
11221;DHT22;8517;53.546;10.104;2023-03-23T15:29:15;14.70;99.90
11221;DHT22;8517;53.546;10.104;2023-03-23T15:31:43;14.70;99.90
11221;DHT22;8517;53.546;10.104;2023-03-23T15:34:25;14.70;99.90
11221;DHT22;8517;53.546;10.104;2023-03-23T15:36:57;14.70;99.90
11221;DHT22;8517;53.546;10.104;2023-03-23T15:39:25;14.70;99.90
11221;DHT22;8517;53.546;10.104;2023-03-23T15:41:54;14.80;99.90
11221;DHT22;8517;53.546;10.104;2023-03-23T15:44:28;14.70;99.90
11221;DHT22;8517;53.546;10.104;2023-03-23T15:47:15;14.70;99.90
11221;DHT22;8517;53.546;10.104;2023-03-23T15:49:45;14.60;99.90
11221;DHT22;8517;53.546;10.104;2023-03-23T15:52:13;14.70;99.90
11221;DHT22;8517;53.546;10.104;2023-03-23T15:54:46;14.70;99.90
11221;DHT22;8517;53.546;10.104;2023-03-23T15:57:13;14.70;99.90
11221;DHT22;8517;53.546;10.104;2023-03-23T15:59:47;14.80;99.90
11221;DHT22;8517;53.546;10.104;2023-03-23T16:02:19;14.90;99.90
11221;DHT22;8517;53.546;10.104;2023-03-23T16:04:48;14.90;99.90
11221;DHT22;8517;53.546;10.104;2023-03-23T16:07:15;15.00;99.90
11221;DHT22;8517;53.546;10.104;2023-03-23T16:09:43;15.00;99.90
11221;DHT22;8517;53.546;10.104;2023-03-23T16:12:11;15.00;99.90
11221;DHT22;8517;53.546;10.104;2023-03-23T16:14:38;15.00;99.90
11221;DHT22;8517;53.546;10.104;2023-03-23T16:17:18;15.00;99.90
11221;DHT22;8517;53.546;10.104;2023-03-23T16:20:13;15.00;99.90
11221;DHT22;8517;53.546;10.104;2023-03-23T16:22:40;15.00;99.90
11221;DHT22;8517;53.546;10.104;2023-03-23T16:25:08;15.00;99.90
11221;DHT22;8517;53.546;10.104;2023-03-23T16:27:36;15.00;99.90
11221;DHT22;8517;53.546;10.104;2023-03-23T16:30:12;14.90;99.90
11221;DHT22;8517;53.546;10.104;2023-03-23T16:32:45;15.00;99.90
11221;DHT22;8517;53.546;10.104;2023-03-23T16:35:16;14.90;99.90
11221;DHT22;8517;53.546;10.104;2023-03-23T16:37:44;15.00;99.90
11221;DHT22;8517;53.546;10.104;2023-03-23T16:40:12;15.00;99.90
11221;DHT22;8517;53.546;10.104;2023-03-23T16:42:39;15.00;99.90
11221;DHT22;8517;53.546;10.104;2023-03-23T16:45:07;15.00;99.90
11221;DHT22;8517;53.546;10.104;2023-03-23T16:47:34;15.10;99.90
11221;DHT22;8517;53.546;10.104;2023-03-23T16:50:01;15.10;99.90
11221;DHT22;8517;53.546;10.104;2023-03-23T16:52:29;15.10;99.90
11221;DHT22;8517;53.546;10.104;2023-03-23T16:54:55;15.00;99.90
11221;DHT22;8517;53.546;10.104;2023-03-23T16:57:23;15.00;99.90
11221;DHT22;8517;53.546;10.104;2023-03-23T16:59:50;14.90;99.90
11221;DHT22;8517;53.546;10.104;2023-03-23T17:02:17;14.90;99.90
11221;DHT22;8517;53.546;10.104;2023-03-23T17:04:44;14.80;99.90
11221;DHT22;8517;53.546;10.104;2023-03-23T17:07:12;14.70;99.90
11221;DHT22;8517;53.546;10.104;2023-03-23T17:09:40;14.70;99.90
11221;DHT22;8517;53.546;10.104;2023-03-23T17:12:07;14.60;99.90
11221;DHT22;8517;53.546;10.104;2023-03-23T17:14:34;14.60;99.90
11221;DHT22;8517;53.546;10.104;2023-03-23T17:17:01;14.50;99.90
11221;DHT22;8517;53.546;10.104;2023-03-23T17:19:28;14.50;99.90
11221;DHT22;8517;53.546;10.104;2023-03-23T17:21:55;14.40;99.90
11221;DHT22;8517;53.546;10.104;2023-03-23T17:24:21;14.40;99.90
11221;DHT22;8517;53.546;10.104;2023-03-23T17:26:50;14.40;99.90
11221;DHT22;8517;53.546;10.104;2023-03-23T17:29:20;14.30;99.90
11221;DHT22;8517;53.546;10.104;2023-03-23T17:31:47;14.30;99.90
11221;DHT22;8517;53.546;10.104;2023-03-23T17:34:15;14.30;99.90